createdAt,value
2019-06-26T00:00:11.093Z,96581.68
2019-06-26T00:02:38.512Z,96579.16
2019-06-26T00:05:05.544Z,96587.83
2019-06-26T00:07:32.906Z,96583.14
2019-06-26T00:10:01.355Z,96584.86
2019-06-26T00:12:28.451Z,96589.05
2019-06-26T00:14:55.488Z,96588.53
2019-06-26T00:17:22.778Z,96592.00
2019-06-26T00:19:50.065Z,96593.58
2019-06-26T00:22:17.116Z,96598.10
2019-06-26T00:24:44.148Z,96596.24
2019-06-26T00:27:11.449Z,96602.81
2019-06-26T00:29:38.569Z,96601.66
2019-06-26T00:32:05.862Z,96600.27
2019-06-26T00:34:33.136Z,96602.36
2019-06-26T00:37:00.427Z,96600.69
2019-06-26T00:39:27.712Z,96601.69
2019-06-26T00:41:54.761Z,96604.30
2019-06-26T00:44:21.793Z,96605.05
2019-06-26T00:46:48.919Z,96599.95
2019-06-26T00:49:16.193Z,96602.33
2019-06-26T00:51:43.253Z,96600.42
2019-06-26T00:54:10.544Z,96599.33
2019-06-26T00:56:37.600Z,96596.58
2019-06-26T00:59:04.957Z,96602.56
2019-06-26T01:01:32.237Z,96600.25
2019-06-26T01:04:00.494Z,96608.02
2019-06-26T01:06:27.771Z,96608.48
2019-06-26T01:08:54.826Z,96607.09
2019-06-26T01:11:21.867Z,96607.09
2019-06-26T01:13:57.606Z,96611.38
2019-06-26T01:16:17.662Z,96612.19
2019-06-26T01:18:44.797Z,96605.81
2019-06-26T01:21:12.102Z,96609.29
2019-06-26T01:23:39.152Z,96612.41
2019-06-26T01:26:06.195Z,96608.05
2019-06-26T01:28:35.109Z,96617.89
2019-06-26T01:31:02.432Z,96613.08
2019-06-26T01:33:29.740Z,96612.33
2019-06-26T01:35:57.028Z,96611.38
2019-06-26T01:38:24.075Z,96605.70
2019-06-26T01:40:51.368Z,96610.27
2019-06-26T01:43:18.398Z,96609.45
2019-06-26T01:45:45.693Z,96606.14
2019-06-26T01:48:12.981Z,96614.78
2019-06-26T01:50:40.022Z,96609.69
2019-06-26T01:53:07.329Z,96609.09
2019-06-26T01:55:34.363Z,96609.58
2019-06-26T01:58:01.454Z,96619.36
2019-06-26T02:00:28.442Z,96616.94
2019-06-26T02:02:55.736Z,96609.33
2019-06-26T02:05:23.033Z,96620.34
2019-06-26T02:07:50.098Z,96613.45
2019-06-26T02:10:17.127Z,96616.84
2019-06-26T02:12:44.179Z,96614.49
2019-06-26T02:15:11.210Z,96612.64
2019-06-26T02:17:38.500Z,96612.56
2019-06-26T02:20:05.536Z,96612.66
2019-06-26T02:22:32.818Z,96611.13
2019-06-26T02:24:59.870Z,96616.33
2019-06-26T02:27:27.169Z,96610.78
2019-06-26T02:29:54.487Z,96616.03
2019-06-26T02:32:21.573Z,96613.36
2019-06-26T02:34:48.860Z,96613.45
2019-06-26T02:37:15.889Z,96611.34
2019-06-26T02:39:43.177Z,96611.78
2019-06-26T02:42:10.288Z,96614.13
2019-06-26T02:44:51.959Z,96614.54
2019-06-26T02:47:19.273Z,96615.17
2019-06-26T02:49:36.122Z,96614.17
2019-06-26T02:52:03.156Z,96615.61
2019-06-26T02:54:30.487Z,96612.56
2019-06-26T02:56:57.529Z,96615.95
2019-06-26T02:59:24.571Z,96610.51
2019-06-26T03:01:51.855Z,96613.08
2019-06-26T03:04:18.977Z,96615.89
2019-06-26T03:06:46.000Z,96613.67
2019-06-26T03:09:13.058Z,96614.10
2019-06-26T03:11:40.110Z,96611.59
2019-06-26T03:14:07.404Z,96614.73
2019-06-26T03:16:34.678Z,96613.11
2019-06-26T03:19:02.046Z,96616.77
2019-06-26T03:21:29.396Z,96611.72
2019-06-26T03:23:56.446Z,96614.39
2019-06-26T03:26:23.724Z,96617.21
2019-06-26T03:28:51.014Z,96616.58
2019-06-26T03:31:18.061Z,96622.20
2019-06-26T03:33:45.250Z,96618.48
2019-06-26T03:36:12.614Z,96619.61
2019-06-26T03:38:39.649Z,96621.52
2019-06-26T03:41:06.954Z,96613.94
2019-06-26T03:43:35.587Z,96613.84
2019-06-26T03:46:02.815Z,96616.98
2019-06-26T03:48:29.854Z,96618.31
2019-06-26T03:50:56.903Z,96622.67
2019-06-26T03:53:24.196Z,96621.67
2019-06-26T03:55:51.494Z,96617.39
2019-06-26T03:58:18.527Z,96617.02
2019-06-26T04:00:45.999Z,96623.53
2019-06-26T04:03:13.031Z,96623.67
2019-06-26T04:05:40.323Z,96622.58
2019-06-26T04:08:07.629Z,96628.92
2019-06-26T04:10:34.914Z,96630.05
2019-06-26T04:13:02.196Z,96640.33
2019-06-26T04:15:41.515Z,96630.79
2019-06-26T04:17:58.208Z,96639.78
2019-06-26T04:20:25.505Z,96641.98
2019-06-26T04:22:52.535Z,96639.23
2019-06-26T04:25:19.824Z,96639.11
2019-06-26T04:27:47.097Z,96641.86
2019-06-26T04:30:14.242Z,96648.80
2019-06-26T04:32:41.266Z,96639.91
2019-06-26T04:35:08.591Z,96644.89
2019-06-26T04:37:35.626Z,96638.97
2019-06-26T04:40:02.676Z,96643.53
2019-06-26T04:42:31.035Z,96647.68
2019-06-26T04:44:58.388Z,96653.08
2019-06-26T04:47:25.453Z,96656.04
2019-06-26T04:49:52.808Z,96655.50
2019-06-26T04:52:20.165Z,96668.09
2019-06-26T04:54:47.200Z,96663.41
2019-06-26T04:57:14.241Z,96662.59
2019-06-26T04:59:41.597Z,96668.41
2019-06-26T05:02:08.983Z,96669.56
2019-06-26T05:04:36.309Z,96667.33
2019-06-26T05:07:04.381Z,96671.19
2019-06-26T05:09:31.432Z,96674.64
2019-06-26T05:11:58.525Z,96679.70
2019-06-26T05:14:25.827Z,96687.27
2019-06-26T05:16:52.882Z,96688.56
2019-06-26T05:19:20.160Z,96692.61
2019-06-26T05:21:47.284Z,96688.16
2019-06-26T05:24:14.317Z,96685.52
2019-06-26T05:26:41.710Z,96689.20
2019-06-26T05:29:09.061Z,96688.16
2019-06-26T05:31:36.413Z,96685.03
2019-06-26T05:34:03.774Z,96686.55
2019-06-26T05:36:30.827Z,96687.03
2019-06-26T05:38:57.862Z,96685.98
2019-06-26T05:41:24.912Z,96690.14
2019-06-26T05:43:52.189Z,96692.81
2019-06-26T05:46:30.527Z,96693.00
2019-06-26T05:48:47.969Z,96699.72
2019-06-26T05:51:15.014Z,96699.42
2019-06-26T05:53:42.385Z,96701.72
2019-06-26T05:56:09.742Z,96707.53
2019-06-26T05:58:38.002Z,96705.35
2019-06-26T06:01:05.294Z,96708.44
2019-06-26T06:03:32.399Z,96709.09
2019-06-26T06:05:59.695Z,96709.50
2019-06-26T06:08:26.971Z,96720.45
2019-06-26T06:10:57.874Z,96719.25
2019-06-26T06:13:24.171Z,96717.66
2019-06-26T06:15:51.315Z,96731.52
2019-06-26T06:18:18.596Z,96722.31
2019-06-26T06:20:45.648Z,96726.86
2019-06-26T06:23:12.927Z,96724.97
2019-06-26T06:25:40.239Z,96727.55
2019-06-26T06:28:07.520Z,96720.00
2019-06-26T06:30:34.805Z,96728.55
2019-06-26T06:33:01.863Z,96730.44
2019-06-26T06:35:29.128Z,96732.88
2019-06-26T06:37:56.185Z,96727.95
2019-06-26T06:40:23.218Z,96734.49
2019-06-26T06:42:50.281Z,96730.95
2019-06-26T06:45:17.307Z,96734.11
2019-06-26T06:47:44.357Z,96734.76
2019-06-26T06:50:11.655Z,96734.34
2019-06-26T06:52:38.717Z,96731.85
2019-06-26T06:55:05.754Z,96739.44
2019-06-26T06:57:32.810Z,96738.27
2019-06-26T06:59:59.844Z,96740.28
2019-06-26T07:02:27.213Z,96741.45
2019-06-26T07:04:54.252Z,96745.67
2019-06-26T07:07:21.606Z,96751.70
2019-06-26T07:09:48.953Z,96756.24
2019-06-26T07:12:16.047Z,96754.08
2019-06-26T07:14:43.055Z,96756.57
2019-06-26T07:17:19.786Z,96754.66
2019-06-26T07:19:39.156Z,96751.64
2019-06-26T07:22:07.482Z,96757.42
2019-06-26T07:24:34.937Z,96757.81
2019-06-26T07:27:02.286Z,96758.48
2019-06-26T07:29:29.321Z,96754.02
2019-06-26T07:31:56.605Z,96755.68
2019-06-26T07:34:23.969Z,96765.48
2019-06-26T07:36:51.013Z,96764.59
2019-06-26T07:39:18.050Z,96764.13
2019-06-26T07:41:45.390Z,96764.84
2019-06-26T07:44:12.747Z,96765.00
2019-06-26T07:46:40.825Z,96766.37
2019-06-26T07:49:07.888Z,96765.84
2019-06-26T07:51:36.249Z,96768.70
2019-06-26T07:54:03.302Z,96771.91
2019-06-26T07:56:30.575Z,96773.05
2019-06-26T07:58:57.888Z,96773.67
2019-06-26T08:01:24.928Z,96773.47
2019-06-26T08:03:53.265Z,96775.13
2019-06-26T08:06:20.303Z,96775.98
2019-06-26T08:08:47.611Z,96773.34
2019-06-26T08:11:14.911Z,96776.80
2019-06-26T08:13:42.207Z,96771.28
2019-06-26T08:16:09.498Z,96781.98
2019-06-26T08:18:36.781Z,96787.34
2019-06-26T08:21:12.128Z,96776.94
2019-06-26T08:23:33.994Z,96784.92
2019-06-26T08:26:01.131Z,96786.80
2019-06-26T08:28:28.416Z,96789.77
2019-06-26T08:30:55.698Z,96789.95
2019-06-26T08:33:22.819Z,96795.44
2019-06-26T08:35:50.193Z,96793.16
2019-06-26T08:38:17.490Z,96797.67
2019-06-26T08:40:44.551Z,96796.81
2019-06-26T08:43:11.813Z,96798.95
2019-06-26T08:45:39.097Z,96792.75
2019-06-26T08:48:19.011Z,96800.73
2019-06-26T08:50:35.453Z,96797.84
2019-06-26T08:53:02.601Z,96798.22
2019-06-26T08:55:29.632Z,96792.55
2019-06-26T08:57:56.916Z,96798.05
2019-06-26T09:00:23.959Z,96800.41
2019-06-26T09:02:51.251Z,96797.53
2019-06-26T09:05:18.557Z,96798.76
2019-06-26T09:07:45.610Z,96803.45
2019-06-26T09:10:12.645Z,96800.06
2019-06-26T09:12:39.925Z,96800.25
2019-06-26T09:15:07.218Z,96797.28
2019-06-26T09:17:34.250Z,96796.72
2019-06-26T09:20:01.401Z,96799.45
2019-06-26T09:22:28.756Z,96793.76
2019-06-26T09:24:56.060Z,96798.11
2019-06-26T09:27:23.089Z,96797.91
2019-06-26T09:29:50.414Z,96796.86
2019-06-26T09:32:17.702Z,96800.07
2019-06-26T09:34:44.746Z,96798.28
2019-06-26T09:37:13.037Z,96796.48
2019-06-26T09:39:40.419Z,96799.06
2019-06-26T09:42:07.410Z,96794.98
2019-06-26T09:44:34.456Z,96798.59
2019-06-26T09:47:01.885Z,96807.36
2019-06-26T09:49:29.184Z,96805.49
2019-06-26T09:51:56.536Z,96805.13
2019-06-26T09:54:23.892Z,96799.61
2019-06-26T09:56:50.928Z,96805.09
2019-06-26T09:59:18.314Z,96801.91
2019-06-26T10:01:45.354Z,96808.13
2019-06-26T10:04:12.411Z,96802.42
2019-06-26T10:06:39.445Z,96803.69
2019-06-26T10:09:06.549Z,96805.31
2019-06-26T10:11:33.841Z,96804.63
2019-06-26T10:14:00.897Z,96801.32
2019-06-26T10:16:28.193Z,96805.97
2019-06-26T10:19:09.422Z,96802.91
2019-06-26T10:21:24.592Z,96802.03
2019-06-26T10:23:51.877Z,96799.72
2019-06-26T10:26:18.925Z,96799.14
2019-06-26T10:28:45.969Z,96800.77
2019-06-26T10:31:13.025Z,96797.67
2019-06-26T10:33:40.356Z,96791.71
2019-06-26T10:36:07.711Z,96796.75
2019-06-26T10:38:35.065Z,96797.89
2019-06-26T10:41:02.049Z,96799.51
2019-06-26T10:43:29.359Z,96795.94
2019-06-26T10:45:56.725Z,96800.05
2019-06-26T10:48:24.076Z,96796.05
2019-06-26T10:50:58.092Z,96791.84
2019-06-26T10:53:20.470Z,96793.82
2019-06-26T10:55:47.472Z,96791.64
2019-06-26T10:58:14.510Z,96789.53
2019-06-26T11:00:41.565Z,96790.07
2019-06-26T11:03:09.589Z,96786.27
2019-06-26T11:05:36.620Z,96783.92
2019-06-26T11:08:03.929Z,96782.27
2019-06-26T11:10:30.981Z,96781.94
2019-06-26T11:12:58.334Z,96781.31
2019-06-26T11:15:25.637Z,96778.05
2019-06-26T11:17:52.702Z,96780.77
2019-06-26T11:20:20.024Z,96775.66
2019-06-26T11:22:47.224Z,96770.94
2019-06-26T11:25:14.518Z,96769.97
2019-06-26T11:27:41.556Z,96766.39
2019-06-26T11:30:08.893Z,96775.52
2019-06-26T11:32:35.929Z,96765.02
2019-06-26T11:35:03.026Z,96767.42
2019-06-26T11:37:30.359Z,96773.48
2019-06-26T11:39:57.485Z,96773.95
2019-06-26T11:42:24.753Z,96772.31
2019-06-26T11:44:52.122Z,96764.44
2019-06-26T11:47:19.223Z,96765.39
2019-06-26T11:49:59.371Z,96769.89
2019-06-26T11:52:15.209Z,96771.06
2019-06-26T11:54:42.547Z,96769.94
2019-06-26T11:57:09.609Z,96767.74
2019-06-26T11:59:36.647Z,96762.14
2019-06-26T12:02:03.719Z,96759.76
2019-06-26T12:04:30.758Z,96758.71
2019-06-26T12:06:58.092Z,96757.14
2019-06-26T12:09:25.380Z,96757.23
2019-06-26T12:11:52.718Z,96755.95
2019-06-26T12:14:20.066Z,96752.33
2019-06-26T12:16:47.123Z,96749.22
2019-06-26T12:19:14.313Z,96749.70
2019-06-26T12:21:41.725Z,96748.30
2019-06-26T12:24:09.066Z,96754.45
2019-06-26T12:26:36.138Z,96747.53
2019-06-26T12:29:03.176Z,96746.33
2019-06-26T12:31:30.521Z,96744.49
2019-06-26T12:33:57.883Z,96740.39
2019-06-26T12:36:25.523Z,96750.30
2019-06-26T12:38:52.526Z,96741.76
2019-06-26T12:41:19.859Z,96740.31
2019-06-26T12:43:46.893Z,96740.07
2019-06-26T12:46:17.956Z,96732.76
2019-06-26T12:48:42.973Z,96731.02
2019-06-26T12:51:10.032Z,96730.97
2019-06-26T12:53:37.430Z,96724.66
2019-06-26T12:56:04.514Z,96718.22
2019-06-26T12:58:31.794Z,96718.30
2019-06-26T13:00:59.146Z,96722.61
2019-06-26T13:03:26.561Z,96712.17
2019-06-26T13:05:53.662Z,96709.73
2019-06-26T13:08:20.720Z,96698.80
2019-06-26T13:10:49.945Z,96704.66
2019-06-26T13:13:17.088Z,96706.98
2019-06-26T13:15:44.125Z,96704.08
2019-06-26T13:18:11.490Z,96702.07
2019-06-26T13:20:52.183Z,96700.16
2019-06-26T13:23:07.541Z,96703.21
2019-06-26T13:25:34.853Z,96703.53
2019-06-26T13:28:01.876Z,96701.72
2019-06-26T13:30:29.187Z,96695.42
2019-06-26T13:32:56.313Z,96698.34
2019-06-26T13:35:24.314Z,96698.18
2019-06-26T13:37:51.887Z,96691.16
2019-06-26T13:40:19.238Z,96693.45
2019-06-26T13:42:46.295Z,96697.92
2019-06-26T13:45:13.335Z,96691.22
2019-06-26T13:47:40.689Z,96690.09
2019-06-26T13:50:07.761Z,96693.28
2019-06-26T13:52:35.043Z,96688.77
2019-06-26T13:55:02.450Z,96692.77
2019-06-26T13:57:29.786Z,96694.09
2019-06-26T13:59:57.146Z,96690.02
2019-06-26T14:02:24.193Z,96694.17
2019-06-26T14:04:51.562Z,96694.41
2019-06-26T14:07:18.898Z,96696.02
2019-06-26T14:09:46.272Z,96684.69
2019-06-26T14:12:13.624Z,96686.58
2019-06-26T14:14:56.831Z,96687.66
2019-06-26T14:17:10.072Z,96686.33
2019-06-26T14:19:37.093Z,96679.84
2019-06-26T14:22:04.132Z,96678.42
2019-06-26T14:24:31.187Z,96681.45
2019-06-26T14:26:58.577Z,96684.55
2019-06-26T14:29:25.640Z,96680.92
2019-06-26T14:31:52.942Z,96678.28
2019-06-26T14:34:20.345Z,96682.31
2019-06-26T14:36:47.686Z,96683.73
2019-06-26T14:39:14.742Z,96678.30
2019-06-26T14:41:41.781Z,96680.97
2019-06-26T14:44:09.123Z,96680.48
2019-06-26T14:46:36.477Z,96680.73
2019-06-26T14:49:03.553Z,96680.73
2019-06-26T14:51:43.554Z,96677.03
2019-06-26T14:53:59.568Z,96675.11
2019-06-26T14:56:34.807Z,96671.86
2019-06-26T14:59:02.181Z,96678.28
2019-06-26T15:01:29.452Z,96676.86
2019-06-26T15:03:56.883Z,96671.44
2019-06-26T15:06:35.488Z,96671.19
2019-06-26T15:09:02.542Z,96667.12
2019-06-26T15:11:31.138Z,96668.91
2019-06-26T15:13:58.192Z,96667.05
2019-06-26T15:16:25.228Z,96664.96
2019-06-26T15:21:25.484Z,96655.89
2019-06-26T15:23:52.542Z,96654.16
2019-06-26T15:26:20.652Z,96650.21
2019-06-26T15:28:47.709Z,96647.87
2019-06-26T15:31:14.999Z,96644.60
2019-06-26T15:33:43.534Z,96643.00
2019-06-26T15:36:10.755Z,96638.61
2019-06-26T15:38:38.121Z,96639.28
2019-06-26T15:41:05.360Z,96640.89
2019-06-26T15:43:32.708Z,96630.95
2019-06-26T15:46:03.817Z,96636.69
2019-06-26T15:48:31.020Z,96634.59
2019-06-26T15:50:58.251Z,96635.14
2019-06-26T15:53:29.466Z,96628.66
2019-06-26T15:55:56.514Z,96628.84
2019-06-26T16:01:11.112Z,96632.10
2019-06-26T16:03:38.172Z,96629.45
2019-06-26T16:08:53.973Z,96628.77
2019-06-26T16:11:21.313Z,96625.55
2019-06-26T16:13:48.508Z,96626.16
2019-06-26T16:16:17.011Z,96623.37
2019-06-26T16:18:49.099Z,96626.63
2019-06-26T16:24:01.932Z,96628.95
2019-06-26T16:26:28.965Z,96625.55
2019-06-26T16:28:56.016Z,96630.17
2019-06-26T16:31:23.384Z,96631.33
2019-06-26T16:33:51.057Z,96623.80
2019-06-26T16:36:19.266Z,96624.60
2019-06-26T16:38:53.863Z,96624.91
2019-06-26T16:41:20.919Z,96623.95
2019-06-26T16:43:47.966Z,96626.77
2019-06-26T16:46:15.314Z,96626.02
2019-06-26T16:48:44.816Z,96625.83
2019-06-26T16:51:14.326Z,96628.14
2019-06-26T16:53:41.950Z,96631.24
2019-06-26T16:56:11.226Z,96621.27
2019-06-26T16:58:45.217Z,96626.53
2019-06-26T17:01:12.531Z,96625.66
2019-06-26T17:03:39.815Z,96628.42
2019-06-26T17:06:08.127Z,96622.75
2019-06-26T17:08:35.155Z,96627.16
2019-06-26T17:11:02.213Z,96623.14
2019-06-26T17:13:30.110Z,96624.55
2019-06-26T17:15:57.400Z,96618.42
2019-06-26T17:18:24.442Z,96626.89
2019-06-26T17:20:52.562Z,96627.81
2019-06-26T17:23:20.399Z,96624.66
2019-06-26T17:25:47.719Z,96625.80
2019-06-26T17:28:16.629Z,96626.39
2019-06-26T17:30:44.070Z,96632.78
2019-06-26T17:33:11.729Z,96628.64
2019-06-26T17:35:39.035Z,96636.83
2019-06-26T17:38:06.322Z,96630.70
2019-06-26T17:40:33.378Z,96631.91
2019-06-26T17:43:11.743Z,96628.70
2019-06-26T17:45:30.498Z,96631.73
2019-06-26T17:47:58.446Z,96631.27
2019-06-26T17:50:25.502Z,96626.22
2019-06-26T17:52:52.785Z,96624.14
2019-06-26T17:55:19.849Z,96624.22
2019-06-26T17:57:48.019Z,96626.73
2019-06-26T18:00:15.290Z,96623.30
2019-06-26T18:02:42.532Z,96626.33
2019-06-26T18:05:09.836Z,96625.37
2019-06-26T18:07:37.085Z,96627.59
2019-06-26T18:10:04.124Z,96614.44
2019-06-26T18:12:31.177Z,96621.52
2019-06-26T18:14:58.215Z,96618.63
2019-06-26T18:17:25.498Z,96631.39
2019-06-26T18:19:53.943Z,96629.84
2019-06-26T18:22:21.355Z,96629.65
2019-06-26T18:24:48.576Z,96625.36
2019-06-26T18:27:15.894Z,96629.47
2019-06-26T18:29:43.253Z,96622.81
2019-06-26T18:32:10.442Z,96624.22
2019-06-26T18:34:37.775Z,96624.87
2019-06-26T18:37:04.831Z,96617.68
2019-06-26T18:39:32.158Z,96615.06
2019-06-26T18:41:59.209Z,96619.44
2019-06-26T18:44:32.328Z,96619.27
2019-06-26T18:46:59.382Z,96625.25
2019-06-26T18:49:27.557Z,96621.53
2019-06-26T18:51:54.825Z,96624.83
2019-06-26T18:54:22.102Z,96616.27
2019-06-26T18:56:49.483Z,96616.08
2019-06-26T18:59:24.823Z,96616.92
2019-06-26T19:01:52.299Z,96611.81
2019-06-26T19:04:19.561Z,96610.81
2019-06-26T19:06:46.618Z,96610.32
2019-06-26T19:09:16.050Z,96610.66
2019-06-26T19:11:43.502Z,96614.72
2019-06-26T19:14:10.797Z,96612.33
2019-06-26T19:16:38.370Z,96613.70
2019-06-26T19:19:05.402Z,96611.05
2019-06-26T19:21:32.453Z,96614.58
2019-06-26T19:24:09.766Z,96613.31
2019-06-26T19:26:28.594Z,96620.33
2019-06-26T19:28:55.638Z,96620.91
2019-06-26T19:31:22.689Z,96629.56
2019-06-26T19:33:50.019Z,96626.15
2019-06-26T19:36:28.563Z,96628.88
2019-06-26T19:38:54.309Z,96627.81
2019-06-26T19:41:24.550Z,96632.38
2019-06-26T19:43:51.603Z,96631.84
2019-06-26T19:46:18.903Z,96630.75
2019-06-26T19:48:47.127Z,96637.48
2019-06-26T19:51:14.438Z,96635.59
2019-06-26T19:53:41.495Z,96635.05
2019-06-26T19:56:20.344Z,96644.73
2019-06-26T19:58:48.886Z,96639.63
2019-06-26T20:01:16.245Z,96641.53
2019-06-26T20:03:43.536Z,96648.00
2019-06-26T20:06:12.724Z,96647.20
2019-06-26T20:08:53.072Z,96648.81
2019-06-26T20:11:08.841Z,96653.66
2019-06-26T20:13:36.193Z,96648.81
2019-06-26T20:16:03.308Z,96653.13
2019-06-26T20:18:30.719Z,96648.02
2019-06-26T20:21:05.041Z,96646.67
2019-06-26T20:23:33.235Z,96647.75
2019-06-26T20:26:00.544Z,96647.73
2019-06-26T20:28:27.848Z,96646.92
2019-06-26T20:30:55.149Z,96652.04
2019-06-26T20:33:22.202Z,96654.48
2019-06-26T20:35:49.573Z,96653.69
2019-06-26T20:38:16.621Z,96651.80
2019-06-26T20:40:46.042Z,96658.80
2019-06-26T20:43:12.419Z,96657.98
2019-06-26T20:45:39.811Z,96657.72
2019-06-26T20:48:06.861Z,96659.59
2019-06-26T20:50:33.899Z,96662.83
2019-06-26T20:53:00.951Z,96662.02
2019-06-26T20:55:27.991Z,96653.41
2019-06-26T20:57:55.340Z,96657.44
2019-06-26T21:00:23.350Z,96664.70
2019-06-26T21:02:54.001Z,96665.22
2019-06-26T21:05:19.395Z,96667.88
2019-06-26T21:07:46.686Z,96670.02
2019-06-26T21:10:13.962Z,96665.41
2019-06-26T21:12:41.017Z,96666.47
2019-06-26T21:15:08.057Z,96660.28
2019-06-26T21:17:35.412Z,96660.56
2019-06-26T21:20:02.761Z,96666.21
2019-06-26T21:22:29.977Z,96661.64
2019-06-26T21:24:57.043Z,96658.70
2019-06-26T21:27:24.437Z,96660.84
2019-06-26T21:29:51.519Z,96663.78
2019-06-26T21:32:18.867Z,96665.38
2019-06-26T21:34:45.979Z,96658.94
2019-06-26T21:37:13.020Z,96668.06
2019-06-26T21:39:40.391Z,96662.41
2019-06-26T21:42:07.654Z,96659.70
2019-06-26T21:44:34.711Z,96660.24
2019-06-26T21:47:01.763Z,96668.83
2019-06-26T21:49:28.818Z,96662.66
2019-06-26T21:51:55.860Z,96670.45
2019-06-26T21:54:23.172Z,96670.97
2019-06-26T21:57:09.481Z,96669.05
2019-06-26T21:59:54.276Z,96672.24
2019-06-26T22:02:39.288Z,96673.30
2019-06-26T22:05:07.183Z,96672.19
2019-06-26T22:07:39.224Z,96671.89
2019-06-26T22:10:13.642Z,96669.71
2019-06-26T22:12:41.040Z,96672.11
2019-06-26T22:15:08.477Z,96671.53
2019-06-26T22:17:37.465Z,96671.26
2019-06-26T22:20:08.702Z,96672.03
2019-06-26T22:22:33.495Z,96663.71
2019-06-26T22:25:00.542Z,96666.39
2019-06-26T22:27:27.819Z,96663.73
2019-06-26T22:29:54.881Z,96653.55
2019-06-26T22:32:21.919Z,96654.11
2019-06-26T22:34:48.977Z,96653.30
2019-06-26T22:37:16.301Z,96652.52
2019-06-26T22:39:43.354Z,96655.23
2019-06-26T22:42:10.478Z,96650.94
2019-06-26T22:44:37.599Z,96653.63
2019-06-26T22:47:04.727Z,96648.26
2019-06-26T22:49:31.788Z,96648.53
2019-06-26T22:51:59.106Z,96648.81
2019-06-26T22:54:26.235Z,96644.23
2019-06-26T22:56:53.607Z,96651.45
2019-06-26T22:59:20.978Z,96651.16
2019-06-26T23:01:48.097Z,96658.92
2019-06-26T23:04:15.390Z,96658.38
2019-06-26T23:06:42.722Z,96656.98
2019-06-26T23:09:09.789Z,96662.53
2019-06-26T23:11:37.094Z,96664.09
2019-06-26T23:14:05.120Z,96665.41
2019-06-26T23:16:32.455Z,96666.52
2019-06-26T23:18:59.815Z,96662.23
2019-06-26T23:21:26.944Z,96662.48
2019-06-26T23:23:53.999Z,96664.84
2019-06-26T23:26:24.418Z,96661.58
2019-06-26T23:28:49.792Z,96658.02
2019-06-26T23:31:17.837Z,96655.87
2019-06-26T23:33:44.865Z,96653.68
2019-06-26T23:36:11.924Z,96660.03
2019-06-26T23:38:39.262Z,96658.38
2019-06-26T23:41:06.319Z,96654.03
2019-06-26T23:43:33.359Z,96655.88
2019-06-26T23:46:01.399Z,96655.02
2019-06-26T23:48:28.779Z,96657.70
2019-06-26T23:50:56.142Z,96654.21
2019-06-26T23:53:23.430Z,96655.33
2019-06-26T23:55:50.849Z,96652.39
2019-06-26T23:58:18.201Z,96654.03
